METAR Data
IDs: Format: Raw Decoded Include TAF

Data at: 0049 UTC 24 May 2019

METAR for:EKRN (Ronne/Bornholm Arpt, --, DN)
Text:EKRN 240020Z AUTO 23005KT 180V270 9999 NCD 11/08 Q1014
Temperature: 11.0°C ( 52°F)
Dewpoint: 8.0°C ( 46°F) [RH = 82%]
Pressure (altimeter):29.94 inches Hg (1014.0 mb)
Winds:from the SW (230 degrees) at 6 MPH (5 knots; 2.6 m/s)
Visibility:6 or more sm (10+ km)
Ceiling:at least 12,000 feet AGL
Clouds:sky clear below 12,000 feet AGL
Text:EKRN 232350Z AUTO VRB02KT 9999 NCD 12/07 Q1015
Temperature: 12.0°C ( 54°F)
Dewpoint: 7.0°C ( 45°F) [RH = 71%]
Pressure (altimeter):29.97 inches Hg (1015.0 mb)
Winds:variable direction winds at 2 MPH (2 knots; 1.0 m/s)
Visibility:6 or more sm (10+ km)
Ceiling:at least 12,000 feet AGL
Clouds:sky clear below 12,000 feet AGL
Text:EKRN 232320Z AUTO 26005KT 9999 NCD 12/08 Q1015
Temperature: 12.0°C ( 54°F)
Dewpoint: 8.0°C ( 46°F) [RH = 76%]
Pressure (altimeter):29.97 inches Hg (1015.0 mb)
Winds:from the W (260 degrees) at 6 MPH (5 knots; 2.6 m/s)
Visibility:6 or more sm (10+ km)
Ceiling:at least 12,000 feet AGL
Clouds:sky clear below 12,000 feet AGL
Text:EKRN 232250Z AUTO 26008KT 9999 BKN210/// 12/08 Q1015
Temperature: 12.0°C ( 54°F)
Dewpoint: 8.0°C ( 46°F) [RH = 76%]
Pressure (altimeter):29.97 inches Hg (1015.0 mb)
Winds:from the W (260 degrees) at 9 MPH (8 knots; 4.1 m/s)
Visibility:6 or more sm (10+ km)
Ceiling:21000 feet AGL
Clouds: broken clouds at 21000 feet AGL
Text:EKRN 232220Z AUTO 26008KT 9999 BKN210/// 12/08 Q1015
Temperature: 12.0°C ( 54°F)
Dewpoint: 8.0°C ( 46°F) [RH = 76%]
Pressure (altimeter):29.97 inches Hg (1015.0 mb)
Winds:from the W (260 degrees) at 9 MPH (8 knots; 4.1 m/s)
Visibility:6 or more sm (10+ km)
Ceiling:21000 feet AGL
Clouds: broken clouds at 21000 feet AGL
Text:EKRN 232150Z AUTO 29006KT 9999 BKN190/// 11/09 Q1015
Temperature: 11.0°C ( 52°F)
Dewpoint: 9.0°C ( 48°F) [RH = 87%]
Pressure (altimeter):29.97 inches Hg (1015.0 mb)
Winds:from the WNW (290 degrees) at 7 MPH (6 knots; 3.1 m/s)
Visibility:6 or more sm (10+ km)
Ceiling:19000 feet AGL
Clouds: broken clouds at 19000 feet AGL
Text:EKRN 232120Z AUTO 27010KT 9999 BKN210/// 11/09 Q1015
Temperature: 11.0°C ( 52°F)
Dewpoint: 9.0°C ( 48°F) [RH = 87%]
Pressure (altimeter):29.97 inches Hg (1015.0 mb)
Winds:from the W (270 degrees) at 12 MPH (10 knots; 5.1 m/s)
Visibility:6 or more sm (10+ km)
Ceiling:21000 feet AGL
Clouds: broken clouds at 21000 feet AGL
Text:EKRN 232050Z AUTO 27007KT 9999 BKN220/// 11/09 Q1016
Temperature: 11.0°C ( 52°F)
Dewpoint: 9.0°C ( 48°F) [RH = 87%]
Pressure (altimeter):30.00 inches Hg (1016.0 mb)
Winds:from the W (270 degrees) at 8 MPH (7 knots; 3.6 m/s)
Visibility:6 or more sm (10+ km)
Ceiling:22000 feet AGL
Clouds: broken clouds at 22000 feet AGL
Text:EKRN 232020Z AUTO 29006KT 9999 BKN220/// 11/09 Q1015
Temperature: 11.0°C ( 52°F)
Dewpoint: 9.0°C ( 48°F) [RH = 87%]
Pressure (altimeter):29.97 inches Hg (1015.0 mb)
Winds:from the WNW (290 degrees) at 7 MPH (6 knots; 3.1 m/s)
Visibility:6 or more sm (10+ km)
Ceiling:22000 feet AGL
Clouds: broken clouds at 22000 feet AGL
Text:EKRN 231950Z AUTO 28004KT 9999 SCT240/// 11/09 Q1015
Temperature: 11.0°C ( 52°F)
Dewpoint: 9.0°C ( 48°F) [RH = 87%]
Pressure (altimeter):29.97 inches Hg (1015.0 mb)
Winds:from the W (280 degrees) at 5 MPH (4 knots; 2.1 m/s)
Visibility:6 or more sm (10+ km)
Ceiling:at least 12,000 feet AGL
Clouds: scattered clouds at 24000 feet AGL
Text:EKRN 231920Z AUTO 28006KT 9999 FEW240/// 11/09 Q1016
Temperature: 11.0°C ( 52°F)
Dewpoint: 9.0°C ( 48°F) [RH = 87%]
Pressure (altimeter):30.00 inches Hg (1016.0 mb)
Winds:from the W (280 degrees) at 7 MPH (6 knots; 3.1 m/s)
Visibility:6 or more sm (10+ km)
Ceiling:at least 12,000 feet AGL
Clouds: few clouds at 24000 feet AGL
Text:EKRN 231850Z AUTO 30007KT 9999 NCD 11/09 Q1015
Temperature: 11.0°C ( 52°F)
Dewpoint: 9.0°C ( 48°F) [RH = 87%]
Pressure (altimeter):29.97 inches Hg (1015.0 mb)
Winds:from the WNW (300 degrees) at 8 MPH (7 knots; 3.6 m/s)
Visibility:6 or more sm (10+ km)
Ceiling:at least 12,000 feet AGL
Clouds:sky clear below 12,000 feet AGL
Text:EKRN 231820Z AUTO 30007KT 9999 NCD 11/09 Q1015
Temperature: 11.0°C ( 52°F)
Dewpoint: 9.0°C ( 48°F) [RH = 87%]
Pressure (altimeter):29.97 inches Hg (1015.0 mb)
Winds:from the WNW (300 degrees) at 8 MPH (7 knots; 3.6 m/s)
Visibility:6 or more sm (10+ km)
Ceiling:at least 12,000 feet AGL
Clouds:sky clear below 12,000 feet AGL
Text:EKRN 231750Z AUTO 29008KT 9999 NCD 12/09 Q1016
Temperature: 12.0°C ( 54°F)
Dewpoint: 9.0°C ( 48°F) [RH = 82%]
Pressure (altimeter):30.00 inches Hg (1016.0 mb)
Winds:from the WNW (290 degrees) at 9 MPH (8 knots; 4.1 m/s)
Visibility:6 or more sm (10+ km)
Ceiling:at least 12,000 feet AGL
Clouds:sky clear below 12,000 feet AGL
Text:EKRN 231720Z AUTO 29008KT 9999 NCD 12/09 Q1015
Temperature: 12.0°C ( 54°F)
Dewpoint: 9.0°C ( 48°F) [RH = 82%]
Pressure (altimeter):29.97 inches Hg (1015.0 mb)
Winds:from the WNW (290 degrees) at 9 MPH (8 knots; 4.1 m/s)
Visibility:6 or more sm (10+ km)
Ceiling:at least 12,000 feet AGL
Clouds:sky clear below 12,000 feet AGL
Text:EKRN 231650Z AUTO 29009KT 9999 FEW240/// 12/09 Q1015
Temperature: 12.0°C ( 54°F)
Dewpoint: 9.0°C ( 48°F) [RH = 82%]
Pressure (altimeter):29.97 inches Hg (1015.0 mb)
Winds:from the WNW (290 degrees) at 10 MPH (9 knots; 4.6 m/s)
Visibility:6 or more sm (10+ km)
Ceiling:at least 12,000 feet AGL
Clouds: few clouds at 24000 feet AGL
Text:EKRN 231620Z AUTO 29009KT 9999 NCD 12/09 Q1015
Temperature: 12.0°C ( 54°F)
Dewpoint: 9.0°C ( 48°F) [RH = 82%]
Pressure (altimeter):29.97 inches Hg (1015.0 mb)
Winds:from the WNW (290 degrees) at 10 MPH (9 knots; 4.6 m/s)
Visibility:6 or more sm (10+ km)
Ceiling:at least 12,000 feet AGL
Clouds:sky clear below 12,000 feet AGL
Text:EKRN 231550Z AUTO 29009KT 9999 NCD 12/09 Q1015
Temperature: 12.0°C ( 54°F)
Dewpoint: 9.0°C ( 48°F) [RH = 82%]
Pressure (altimeter):29.97 inches Hg (1015.0 mb)
Winds:from the WNW (290 degrees) at 10 MPH (9 knots; 4.6 m/s)
Visibility:6 or more sm (10+ km)
Ceiling:at least 12,000 feet AGL
Clouds:sky clear below 12,000 feet AGL
Text:EKRN 231520Z AUTO 29007KT 250V310 9999 NCD 13/09 Q1016
Temperature: 13.0°C ( 55°F)
Dewpoint: 9.0°C ( 48°F) [RH = 77%]
Pressure (altimeter):30.00 inches Hg (1016.0 mb)
Winds:from the WNW (290 degrees) at 8 MPH (7 knots; 3.6 m/s)
Visibility:6 or more sm (10+ km)
Ceiling:at least 12,000 feet AGL
Clouds:sky clear below 12,000 feet AGL
Text:EKRN 231450Z AUTO 27009KT 9999 NCD 13/10 Q1016
Temperature: 13.0°C ( 55°F)
Dewpoint: 10.0°C ( 50°F) [RH = 82%]
Pressure (altimeter):30.00 inches Hg (1016.0 mb)
Winds:from the W (270 degrees) at 10 MPH (9 knots; 4.6 m/s)
Visibility:6 or more sm (10+ km)
Ceiling:at least 12,000 feet AGL
Clouds:sky clear below 12,000 feet AGL
Text:EKRN 231420Z AUTO 27008KT 9999 FEW240/// 12/09 Q1016
Temperature: 12.0°C ( 54°F)
Dewpoint: 9.0°C ( 48°F) [RH = 82%]
Pressure (altimeter):30.00 inches Hg (1016.0 mb)
Winds:from the W (270 degrees) at 9 MPH (8 knots; 4.1 m/s)
Visibility:6 or more sm (10+ km)
Ceiling:at least 12,000 feet AGL
Clouds: few clouds at 24000 feet AGL
Text:EKRN 231350Z AUTO 27009KT 9999 SCT230/// 13/09 Q1016
Temperature: 13.0°C ( 55°F)
Dewpoint: 9.0°C ( 48°F) [RH = 77%]
Pressure (altimeter):30.00 inches Hg (1016.0 mb)
Winds:from the W (270 degrees) at 10 MPH (9 knots; 4.6 m/s)
Visibility:6 or more sm (10+ km)
Ceiling:at least 12,000 feet AGL
Clouds: scattered clouds at 23000 feet AGL
Text:EKRN 231320Z AUTO 27009KT 9999 NCD 13/09 Q1016
Temperature: 13.0°C ( 55°F)
Dewpoint: 9.0°C ( 48°F) [RH = 77%]
Pressure (altimeter):30.00 inches Hg (1016.0 mb)
Winds:from the W (270 degrees) at 10 MPH (9 knots; 4.6 m/s)
Visibility:6 or more sm (10+ km)
Ceiling:at least 12,000 feet AGL
Clouds:sky clear below 12,000 feet AGL
Text:EKRN 231250Z AUTO 27010KT 9999 BKN210/// 13/09 Q1016
Temperature: 13.0°C ( 55°F)
Dewpoint: 9.0°C ( 48°F) [RH = 77%]
Pressure (altimeter):30.00 inches Hg (1016.0 mb)
Winds:from the W (270 degrees) at 12 MPH (10 knots; 5.1 m/s)
Visibility:6 or more sm (10+ km)
Ceiling:21000 feet AGL
Clouds: broken clouds at 21000 feet AGL
Text:EKRN 231220Z 28008KT CAVOK 12/09 Q1016
Temperature: 12.0°C ( 54°F)
Dewpoint: 9.0°C ( 48°F) [RH = 82%]
Pressure (altimeter):30.00 inches Hg (1016.0 mb)
Winds:from the W (280 degrees) at 9 MPH (8 knots; 4.1 m/s)
Visibility:6 or more sm (10+ km)
Ceiling:ceiling and visibility are OK
Clouds:unknown
Text:EKRN 231150Z 28009KT CAVOK 12/09 Q1016
Temperature: 12.0°C ( 54°F)
Dewpoint: 9.0°C ( 48°F) [RH = 82%]
Pressure (altimeter):30.00 inches Hg (1016.0 mb)
Winds:from the W (280 degrees) at 10 MPH (9 knots; 4.6 m/s)
Visibility:6 or more sm (10+ km)
Ceiling:ceiling and visibility are OK
Clouds:unknown
Text:EKRN 231120Z 28010KT CAVOK 12/09 Q1016
Temperature: 12.0°C ( 54°F)
Dewpoint: 9.0°C ( 48°F) [RH = 82%]
Pressure (altimeter):30.00 inches Hg (1016.0 mb)
Winds:from the W (280 degrees) at 12 MPH (10 knots; 5.1 m/s)
Visibility:6 or more sm (10+ km)
Ceiling:ceiling and visibility are OK
Clouds:unknown
Text:EKRN 231050Z 28012KT CAVOK 12/09 Q1016
Temperature: 12.0°C ( 54°F)
Dewpoint: 9.0°C ( 48°F) [RH = 82%]
Pressure (altimeter):30.00 inches Hg (1016.0 mb)
Winds:from the W (280 degrees) at 14 MPH (12 knots; 6.2 m/s)
Visibility:6 or more sm (10+ km)
Ceiling:ceiling and visibility are OK
Clouds:unknown
Text:EKRN 231020Z 28015KT CAVOK 12/09 Q1016
Temperature: 12.0°C ( 54°F)
Dewpoint: 9.0°C ( 48°F) [RH = 82%]
Pressure (altimeter):30.00 inches Hg (1016.0 mb)
Winds:from the W (280 degrees) at 17 MPH (15 knots; 7.7 m/s)
Visibility:6 or more sm (10+ km)
Ceiling:ceiling and visibility are OK
Clouds:unknown
Text:EKRN 230950Z 28015KT CAVOK 12/09 Q1016
Temperature: 12.0°C ( 54°F)
Dewpoint: 9.0°C ( 48°F) [RH = 82%]
Pressure (altimeter):30.00 inches Hg (1016.0 mb)
Winds:from the W (280 degrees) at 17 MPH (15 knots; 7.7 m/s)
Visibility:6 or more sm (10+ km)
Ceiling:ceiling and visibility are OK
Clouds:unknown
Text:EKRN 230920Z 28014KT CAVOK 12/09 Q1016
Temperature: 12.0°C ( 54°F)
Dewpoint: 9.0°C ( 48°F) [RH = 82%]
Pressure (altimeter):30.00 inches Hg (1016.0 mb)
Winds:from the W (280 degrees) at 16 MPH (14 knots; 7.2 m/s)
Visibility:6 or more sm (10+ km)
Ceiling:ceiling and visibility are OK
Clouds:unknown
Text:EKRN 230850Z 28012KT CAVOK 12/09 Q1016
Temperature: 12.0°C ( 54°F)
Dewpoint: 9.0°C ( 48°F) [RH = 82%]
Pressure (altimeter):30.00 inches Hg (1016.0 mb)
Winds:from the W (280 degrees) at 14 MPH (12 knots; 6.2 m/s)
Visibility:6 or more sm (10+ km)
Ceiling:ceiling and visibility are OK
Clouds:unknown
Text:EKRN 230820Z 29016KT CAVOK 12/08 Q1016
Temperature: 12.0°C ( 54°F)
Dewpoint: 8.0°C ( 46°F) [RH = 76%]
Pressure (altimeter):30.00 inches Hg (1016.0 mb)
Winds:from the WNW (290 degrees) at 18 MPH (16 knots; 8.2 m/s)
Visibility:6 or more sm (10+ km)
Ceiling:ceiling and visibility are OK
Clouds:unknown
Text:EKRN 230750Z 29014KT CAVOK 12/08 Q1016
Temperature: 12.0°C ( 54°F)
Dewpoint: 8.0°C ( 46°F) [RH = 76%]
Pressure (altimeter):30.00 inches Hg (1016.0 mb)
Winds:from the WNW (290 degrees) at 16 MPH (14 knots; 7.2 m/s)
Visibility:6 or more sm (10+ km)
Ceiling:ceiling and visibility are OK
Clouds:unknown
Text:EKRN 230720Z 30016KT CAVOK 12/08 Q1016
Temperature: 12.0°C ( 54°F)
Dewpoint: 8.0°C ( 46°F) [RH = 76%]
Pressure (altimeter):30.00 inches Hg (1016.0 mb)
Winds:from the WNW (300 degrees) at 18 MPH (16 knots; 8.2 m/s)
Visibility:6 or more sm (10+ km)
Ceiling:ceiling and visibility are OK
Clouds:unknown
Text:EKRN 230650Z 30015KT CAVOK 11/08 Q1015
Temperature: 11.0°C ( 52°F)
Dewpoint: 8.0°C ( 46°F) [RH = 82%]
Pressure (altimeter):29.97 inches Hg (1015.0 mb)
Winds:from the WNW (300 degrees) at 17 MPH (15 knots; 7.7 m/s)
Visibility:6 or more sm (10+ km)
Ceiling:ceiling and visibility are OK
Clouds:unknown
Text:EKRN 230620Z 30016KT CAVOK 11/08 Q1015
Temperature: 11.0°C ( 52°F)
Dewpoint: 8.0°C ( 46°F) [RH = 82%]
Pressure (altimeter):29.97 inches Hg (1015.0 mb)
Winds:from the WNW (300 degrees) at 18 MPH (16 knots; 8.2 m/s)
Visibility:6 or more sm (10+ km)
Ceiling:ceiling and visibility are OK
Clouds:unknown
Text:EKRN 230550Z 31014KT CAVOK 11/08 Q1015
Temperature: 11.0°C ( 52°F)
Dewpoint: 8.0°C ( 46°F) [RH = 82%]
Pressure (altimeter):29.97 inches Hg (1015.0 mb)
Winds:from the NW (310 degrees) at 16 MPH (14 knots; 7.2 m/s)
Visibility:6 or more sm (10+ km)
Ceiling:ceiling and visibility are OK
Clouds:unknown
Text:EKRN 230520Z 31016KT CAVOK 11/08 Q1014
Temperature: 11.0°C ( 52°F)
Dewpoint: 8.0°C ( 46°F) [RH = 82%]
Pressure (altimeter):29.94 inches Hg (1014.0 mb)
Winds:from the NW (310 degrees) at 18 MPH (16 knots; 8.2 m/s)
Visibility:6 or more sm (10+ km)
Ceiling:ceiling and visibility are OK
Clouds:unknown
Text:EKRN 230450Z 31016KT CAVOK 10/08 Q1014
Temperature: 10.0°C ( 50°F)
Dewpoint: 8.0°C ( 46°F) [RH = 87%]
Pressure (altimeter):29.94 inches Hg (1014.0 mb)
Winds:from the NW (310 degrees) at 18 MPH (16 knots; 8.2 m/s)
Visibility:6 or more sm (10+ km)
Ceiling:ceiling and visibility are OK
Clouds:unknown
Text:EKRN 230420Z 30017KT CAVOK 10/08 Q1014
Temperature: 10.0°C ( 50°F)
Dewpoint: 8.0°C ( 46°F) [RH = 87%]
Pressure (altimeter):29.94 inches Hg (1014.0 mb)
Winds:from the WNW (300 degrees) at 20 MPH (17 knots; 8.7 m/s)
Visibility:6 or more sm (10+ km)
Ceiling:ceiling and visibility are OK
Clouds:unknown
Text:EKRN 230350Z AUTO 30015KT 9999 BKN066/// 10/08 Q1014
Temperature: 10.0°C ( 50°F)
Dewpoint: 8.0°C ( 46°F) [RH = 87%]
Pressure (altimeter):29.94 inches Hg (1014.0 mb)
Winds:from the WNW (300 degrees) at 17 MPH (15 knots; 7.7 m/s)
Visibility:6 or more sm (10+ km)
Ceiling:6600 feet AGL
Clouds: broken clouds at 6600 feet AGL
Text:EKRN 230320Z AUTO 30013KT 9999 FEW066/// 10/08 Q1014
Temperature: 10.0°C ( 50°F)
Dewpoint: 8.0°C ( 46°F) [RH = 87%]
Pressure (altimeter):29.94 inches Hg (1014.0 mb)
Winds:from the WNW (300 degrees) at 15 MPH (13 knots; 6.7 m/s)
Visibility:6 or more sm (10+ km)
Ceiling:at least 12,000 feet AGL
Clouds: few clouds at 6600 feet AGL
Text:EKRN 230250Z AUTO 30014KT 9999 SCT061/// 10/08 Q1014
Temperature: 10.0°C ( 50°F)
Dewpoint: 8.0°C ( 46°F) [RH = 87%]
Pressure (altimeter):29.94 inches Hg (1014.0 mb)
Winds:from the WNW (300 degrees) at 16 MPH (14 knots; 7.2 m/s)
Visibility:6 or more sm (10+ km)
Ceiling:at least 12,000 feet AGL
Clouds: scattered clouds at 6100 feet AGL
Text:EKRN 230220Z AUTO 30016KT 9999 OVC057/// 10/08 Q1013
Temperature: 10.0°C ( 50°F)
Dewpoint: 8.0°C ( 46°F) [RH = 87%]
Pressure (altimeter):29.91 inches Hg (1013.0 mb)
Winds:from the WNW (300 degrees) at 18 MPH (16 knots; 8.2 m/s)
Visibility:6 or more sm (10+ km)
Ceiling:5700 feet AGL
Clouds: overcast cloud deck at 5700 feet AGL
Text:EKRN 230150Z AUTO 30014KT 9999 FEW049/// BKN055/// 10/08 Q1013
Temperature: 10.0°C ( 50°F)
Dewpoint: 8.0°C ( 46°F) [RH = 87%]
Pressure (altimeter):29.91 inches Hg (1013.0 mb)
Winds:from the WNW (300 degrees) at 16 MPH (14 knots; 7.2 m/s)
Visibility:6 or more sm (10+ km)
Ceiling:5500 feet AGL
Clouds: few clouds at 4900 feet AGL, broken clouds at 5500 feet AGL
Text:EKRN 230120Z AUTO 30014KT 9999 BKN047/// 11/08 Q1013
Temperature: 11.0°C ( 52°F)
Dewpoint: 8.0°C ( 46°F) [RH = 82%]
Pressure (altimeter):29.91 inches Hg (1013.0 mb)
Winds:from the WNW (300 degrees) at 16 MPH (14 knots; 7.2 m/s)
Visibility:6 or more sm (10+ km)
Ceiling:4700 feet AGL
Clouds: broken clouds at 4700 feet AGL
Text:EKRN 230050Z AUTO 30015KT 9999 BKN047/// 11/08 Q1013
Temperature: 11.0°C ( 52°F)
Dewpoint: 8.0°C ( 46°F) [RH = 82%]
Pressure (altimeter):29.91 inches Hg (1013.0 mb)
Winds:from the WNW (300 degrees) at 17 MPH (15 knots; 7.7 m/s)
Visibility:6 or more sm (10+ km)
Ceiling:4700 feet AGL
Clouds: broken clouds at 4700 feet AGL
Text:EKRN 230020Z AUTO 31017KT 9999 FEW063/// 11/08 Q1013
Temperature: 11.0°C ( 52°F)
Dewpoint: 8.0°C ( 46°F) [RH = 82%]
Pressure (altimeter):29.91 inches Hg (1013.0 mb)
Winds:from the NW (310 degrees) at 20 MPH (17 knots; 8.7 m/s)
Visibility:6 or more sm (10+ km)
Ceiling:at least 12,000 feet AGL
Clouds: few clouds at 6300 feet AGL
Text:EKRN 222350Z AUTO 31018KT 9999 BKN050/// 11/08 Q1013
Temperature: 11.0°C ( 52°F)
Dewpoint: 8.0°C ( 46°F) [RH = 82%]
Pressure (altimeter):29.91 inches Hg (1013.0 mb)
Winds:from the NW (310 degrees) at 21 MPH (18 knots; 9.3 m/s)
Visibility:6 or more sm (10+ km)
Ceiling:5000 feet AGL
Clouds: broken clouds at 5000 feet AGL
Text:EKRN 222320Z AUTO 31016KT 9999 FEW031/// OVC050/// 11/09 Q1013
Temperature: 11.0°C ( 52°F)
Dewpoint: 9.0°C ( 48°F) [RH = 87%]
Pressure (altimeter):29.91 inches Hg (1013.0 mb)
Winds:from the NW (310 degrees) at 18 MPH (16 knots; 8.2 m/s)
Visibility:6 or more sm (10+ km)
Ceiling:5000 feet AGL
Clouds: few clouds at 3100 feet AGL, overcast cloud deck at 5000 feet AGL
Text:EKRN 222250Z AUTO 31015KT 9999 SCT013/// BKN031/// 11/09 Q1013
Temperature: 11.0°C ( 52°F)
Dewpoint: 9.0°C ( 48°F) [RH = 87%]
Pressure (altimeter):29.91 inches Hg (1013.0 mb)
Winds:from the NW (310 degrees) at 17 MPH (15 knots; 7.7 m/s)
Visibility:6 or more sm (10+ km)
Ceiling:3100 feet AGL
Clouds: scattered clouds at 1300 feet AGL, broken clouds at 3100 feet AGL
Text:EKRN 222220Z AUTO 31014KT 9999 OVC011/// 12/10 Q1013
Temperature: 12.0°C ( 54°F)
Dewpoint: 10.0°C ( 50°F) [RH = 88%]
Pressure (altimeter):29.91 inches Hg (1013.0 mb)
Winds:from the NW (310 degrees) at 16 MPH (14 knots; 7.2 m/s)
Visibility:6 or more sm (10+ km)
Ceiling:1100 feet AGL
Clouds: overcast cloud deck at 1100 feet AGL
Text:EKRN 222150Z AUTO 31013KT 9999 OVC011/// 11/10 Q1012
Temperature: 11.0°C ( 52°F)
Dewpoint: 10.0°C ( 50°F) [RH = 94%]
Pressure (altimeter):29.88 inches Hg (1012.0 mb)
Winds:from the NW (310 degrees) at 15 MPH (13 knots; 6.7 m/s)
Visibility:6 or more sm (10+ km)
Ceiling:1100 feet AGL
Clouds: overcast cloud deck at 1100 feet AGL
Text:EKRN 222120Z AUTO 31014KT 9999 OVC009/// 12/10 Q1012
Temperature: 12.0°C ( 54°F)
Dewpoint: 10.0°C ( 50°F) [RH = 88%]
Pressure (altimeter):29.88 inches Hg (1012.0 mb)
Winds:from the NW (310 degrees) at 16 MPH (14 knots; 7.2 m/s)
Visibility:6 or more sm (10+ km)
Ceiling:900 feet AGL
Clouds: overcast cloud deck at 900 feet AGL
Text:EKRN 222050Z AUTO 31013KT 9999 OVC010/// 12/10 Q1012
Temperature: 12.0°C ( 54°F)
Dewpoint: 10.0°C ( 50°F) [RH = 88%]
Pressure (altimeter):29.88 inches Hg (1012.0 mb)
Winds:from the NW (310 degrees) at 15 MPH (13 knots; 6.7 m/s)
Visibility:6 or more sm (10+ km)
Ceiling:1000 feet AGL
Clouds: overcast cloud deck at 1000 feet AGL
Text:EKRN 222020Z AUTO 31014KT 9999 OVC010/// 12/10 Q1012
Temperature: 12.0°C ( 54°F)
Dewpoint: 10.0°C ( 50°F) [RH = 88%]
Pressure (altimeter):29.88 inches Hg (1012.0 mb)
Winds:from the NW (310 degrees) at 16 MPH (14 knots; 7.2 m/s)
Visibility:6 or more sm (10+ km)
Ceiling:1000 feet AGL
Clouds: overcast cloud deck at 1000 feet AGL
Text:EKRN 221950Z AUTO 31014KT 9999 OVC010/// 12/10 Q1012
Temperature: 12.0°C ( 54°F)
Dewpoint: 10.0°C ( 50°F) [RH = 88%]
Pressure (altimeter):29.88 inches Hg (1012.0 mb)
Winds:from the NW (310 degrees) at 16 MPH (14 knots; 7.2 m/s)
Visibility:6 or more sm (10+ km)
Ceiling:1000 feet AGL
Clouds: overcast cloud deck at 1000 feet AGL
Text:EKRN 221920Z AUTO 31015KT 9999 OVC010/// 12/10 Q1012
Temperature: 12.0°C ( 54°F)
Dewpoint: 10.0°C ( 50°F) [RH = 88%]
Pressure (altimeter):29.88 inches Hg (1012.0 mb)
Winds:from the NW (310 degrees) at 17 MPH (15 knots; 7.7 m/s)
Visibility:6 or more sm (10+ km)
Ceiling:1000 feet AGL
Clouds: overcast cloud deck at 1000 feet AGL
Text:EKRN 221850Z AUTO 31015KT 9999 OVC011/// 12/11 Q1011
Temperature: 12.0°C ( 54°F)
Dewpoint: 11.0°C ( 52°F) [RH = 94%]
Pressure (altimeter):29.85 inches Hg (1011.0 mb)
Winds:from the NW (310 degrees) at 17 MPH (15 knots; 7.7 m/s)
Visibility:6 or more sm (10+ km)
Ceiling:1100 feet AGL
Clouds: overcast cloud deck at 1100 feet AGL
Text:EKRN 221820Z AUTO 31018KT 9999 OVC012/// 13/11 Q1011
Temperature: 13.0°C ( 55°F)
Dewpoint: 11.0°C ( 52°F) [RH = 88%]
Pressure (altimeter):29.85 inches Hg (1011.0 mb)
Winds:from the NW (310 degrees) at 21 MPH (18 knots; 9.3 m/s)
Visibility:6 or more sm (10+ km)
Ceiling:1200 feet AGL
Clouds: overcast cloud deck at 1200 feet AGL
Text:EKRN 221750Z AUTO 30018KT 9999 BKN012/// 13/11 Q1011
Temperature: 13.0°C ( 55°F)
Dewpoint: 11.0°C ( 52°F) [RH = 88%]
Pressure (altimeter):29.85 inches Hg (1011.0 mb)
Winds:from the WNW (300 degrees) at 21 MPH (18 knots; 9.3 m/s)
Visibility:6 or more sm (10+ km)
Ceiling:1200 feet AGL
Clouds: broken clouds at 1200 feet AGL
Text:EKRN 221720Z AUTO 30018KT 9999 NCD 13/11 Q1011
Temperature: 13.0°C ( 55°F)
Dewpoint: 11.0°C ( 52°F) [RH = 88%]
Pressure (altimeter):29.85 inches Hg (1011.0 mb)
Winds:from the WNW (300 degrees) at 21 MPH (18 knots; 9.3 m/s)
Visibility:6 or more sm (10+ km)
Ceiling:at least 12,000 feet AGL
Clouds:sky clear below 12,000 feet AGL
Text:EKRN 221650Z AUTO 30016KT 9999 SCT025/// 13/11 Q1010
Temperature: 13.0°C ( 55°F)
Dewpoint: 11.0°C ( 52°F) [RH = 88%]
Pressure (altimeter):29.82 inches Hg (1010.0 mb)
Winds:from the WNW (300 degrees) at 18 MPH (16 knots; 8.2 m/s)
Visibility:6 or more sm (10+ km)
Ceiling:at least 12,000 feet AGL
Clouds: scattered clouds at 2500 feet AGL
Text:EKRN 221620Z AUTO 29013KT 9999 FEW004/// BKN024/// 13/12 Q1010
Temperature: 13.0°C ( 55°F)
Dewpoint: 12.0°C ( 54°F) [RH = 94%]
Pressure (altimeter):29.82 inches Hg (1010.0 mb)
Winds:from the WNW (290 degrees) at 15 MPH (13 knots; 6.7 m/s)
Visibility:6 or more sm (10+ km)
Ceiling:2400 feet AGL
Clouds: few clouds at 400 feet AGL, broken clouds at 2400 feet AGL
Text:EKRN 221550Z AUTO 30011KT 9000 OVC002/// 13/12 Q1010
Temperature: 13.0°C ( 55°F)
Dewpoint: 12.0°C ( 54°F) [RH = 94%]
Pressure (altimeter):29.82 inches Hg (1010.0 mb)
Winds:from the WNW (300 degrees) at 13 MPH (11 knots; 5.7 m/s)
Visibility: 6 sm ( 9 km)
Ceiling:200 feet AGL
Clouds: overcast cloud deck at 200 feet AGL
Text:EKRN 221520Z AUTO 29009KT 4700 BR OVC002/// 12/11 Q1010
Temperature: 12.0°C ( 54°F)
Dewpoint: 11.0°C ( 52°F) [RH = 94%]
Pressure (altimeter):29.82 inches Hg (1010.0 mb)
Winds:from the WNW (290 degrees) at 10 MPH (9 knots; 4.6 m/s)
Visibility: 2.92 sm ( 4.70 km)
Ceiling:200 feet AGL
Clouds: overcast cloud deck at 200 feet AGL
Weather:BR (mist)
Text:EKRN 221450Z AUTO 29010KT 8000 OVC002/// 13/12 Q1010
Temperature: 13.0°C ( 55°F)
Dewpoint: 12.0°C ( 54°F) [RH = 94%]
Pressure (altimeter):29.82 inches Hg (1010.0 mb)
Winds:from the WNW (290 degrees) at 12 MPH (10 knots; 5.1 m/s)
Visibility: 5 sm ( 8 km)
Ceiling:200 feet AGL
Clouds: overcast cloud deck at 200 feet AGL
Text:EKRN 221420Z AUTO 28008KT 250V310 6000 BKN003/// 13/12 Q1010
Temperature: 13.0°C ( 55°F)
Dewpoint: 12.0°C ( 54°F) [RH = 94%]
Pressure (altimeter):29.82 inches Hg (1010.0 mb)
Winds:from the W (280 degrees) at 9 MPH (8 knots; 4.1 m/s)
Visibility: 4 sm ( 6 km)
Ceiling:300 feet AGL
Clouds: broken clouds at 300 feet AGL
Text:EKRN 221350Z AUTO 29011KT 9999 FEW005/// BKN013/// 15/13 Q1010
Temperature: 15.0°C ( 59°F)
Dewpoint: 13.0°C ( 55°F) [RH = 88%]
Pressure (altimeter):29.82 inches Hg (1010.0 mb)
Winds:from the WNW (290 degrees) at 13 MPH (11 knots; 5.7 m/s)
Visibility:6 or more sm (10+ km)
Ceiling:1300 feet AGL
Clouds: few clouds at 500 feet AGL, broken clouds at 1300 feet AGL
Text:EKRN 221320Z AUTO 30011KT 9999 BKN004/// 15/13 Q1010
Temperature: 15.0°C ( 59°F)
Dewpoint: 13.0°C ( 55°F) [RH = 88%]
Pressure (altimeter):29.82 inches Hg (1010.0 mb)
Winds:from the WNW (300 degrees) at 13 MPH (11 knots; 5.7 m/s)
Visibility:6 or more sm (10+ km)
Ceiling:400 feet AGL
Clouds: broken clouds at 400 feet AGL
Text:EKRN 221250Z AUTO 30012KT 9999 OVC002/// 14/12 Q1010
Temperature: 14.0°C ( 57°F)
Dewpoint: 12.0°C ( 54°F) [RH = 88%]
Pressure (altimeter):29.82 inches Hg (1010.0 mb)
Winds:from the WNW (300 degrees) at 14 MPH (12 knots; 6.2 m/s)
Visibility:6 or more sm (10+ km)
Ceiling:200 feet AGL
Clouds: overcast cloud deck at 200 feet AGL

TAF for:EKRN (Ronne/Bornholm Arpt, --, DN) issued at 1711 UTC 23 May 2019
Text:TAF EKRN 231711Z 2318/2322 27006KT CAVOK
Forecast period:1800 to 2200 UTC 23 May 2019
Forecast type:FROM: standard forecast or significant change
Winds:from the W (270 degrees) at 7 MPH (6 knots; 3.1 m/s)
Visibility:6 or more sm (10+ km)
Clouds:missing
Weather:NSW (no significant weather)